Time;durP1;ratioP1;P1;durP2;ratioP2;P2;SDS_P1;SDS_P2;PMS_P1;PMS_P2;Temp;Humidity;BMP_temperature;BMP_pressure;BME280_temperature;BME280_humidity;BME280_pressure;Samples;Min_cycle;Max_cycle;Signal;HPM_P1;HPM_P2
2023/03/23 00:01:30;;;;;;;32.30;1.85;;;;;;;21.53;61.33;98651.91;7312724;19;128961;-41
2023/03/23 00:03:56;;;;;;;17.67;1.48;;;;;;;21.55;60.47;98652.53;7313026;19;129358;-40
2023/03/23 00:06:22;;;;;;;;;;;;;;;21.61;60.85;98644.06;7311384;19;129264;-41
2023/03/23 00:08:56;;;;;;;33.33;1.85;;;;;;;21.59;61.22;98643.38;7313261;19;130062;-39
2023/03/23 00:11:23;;;;;;;39.65;2.40;;;;;;;21.50;60.78;98628.66;7311117;19;129306;-41
2023/03/23 00:13:51;;;;;;;36.63;2.08;;;;;;;21.57;60.91;98644.50;7312188;19;129664;-41
2023/03/23 00:16:28;;;;;;;49.58;2.75;;;;;;;21.62;60.57;98645.66;7310737;19;130064;-41
2023/03/23 00:18:55;;;;;;;58.10;3.00;;;;;;;21.63;61.19;98649.94;7312096;19;129391;-42
2023/03/23 00:21:25;;;;;;;33.60;1.90;;;;;;;21.66;61.05;98648.78;7312201;19;129184;-42
2023/03/23 00:23:51;;;;;;;38.95;2.30;;;;;;;21.68;61.15;98652.06;7313161;19;130123;-41
2023/03/23 00:26:17;;;;;;;44.58;2.55;;;;;;;21.67;60.35;98642.56;7309912;19;129604;-42
2023/03/23 00:28:46;;;;;;;63.38;3.53;;;;;;;21.68;60.34;98647.63;7312145;19;129192;-42
2023/03/23 00:31:12;;;;;;;35.90;2.08;;;;;;;21.68;60.37;98642.41;7310522;19;129379;-41
2023/03/23 00:33:40;;;;;;;15.68;1.30;;;;;;;21.69;61.27;98644.03;7309835;19;129254;-41
2023/03/23 00:36:08;;;;;;;43.65;2.60;;;;;;;21.72;60.42;98648.13;7309350;19;129610;-39
2023/03/23 00:38:35;;;;;;;69.07;3.85;;;;;;;21.72;60.73;98645.50;7311095;19;129365;-43
2023/03/23 00:41:02;;;;;;;45.67;2.63;;;;;;;21.70;60.24;98645.66;7312310;19;128995;-41
2023/03/23 00:43:29;;;;;;;40.38;2.47;;;;;;;21.72;60.68;98654.19;7312713;19;129426;-41
2023/03/23 00:45:55;;;;;;;47.55;2.67;;;;;;;21.70;61.02;98645.66;7307476;19;129641;-40
2023/03/23 00:48:24;;;;;;;44.35;2.35;;;;;;;21.70;61.39;98640.44;7311642;19;129052;-42
2023/03/23 00:50:51;;;;;;;51.33;2.88;;;;;;;21.72;61.24;98642.88;7310032;19;128880;-42
2023/03/23 00:53:17;;;;;;;;;;;;;;;21.77;61.27;98641.47;7312494;19;129955;-41
2023/03/23 00:55:44;;;;;;;47.83;2.60;;;;;;;21.71;60.45;98631.63;7310056;19;129707;-41
2023/03/23 00:58:10;;;;;;;50.97;2.88;;;;;;;21.71;60.91;98628.19;7311277;19;129598;-42
2023/03/23 01:00:36;;;;;;;53.25;3.03;;;;;;;21.72;61.34;98633.25;7311233;19;129513;-43
2023/03/23 01:03:01;;;;;;;66.93;3.92;;;;;;;21.74;61.32;98625.25;7309799;19;132279;-42
2023/03/23 01:05:31;;;;;;;29.65;2.08;;;;;;;21.73;60.59;98626.22;7309326;19;130598;-41
2023/03/23 01:07:58;;;;;;;45.47;2.70;;;;;;;21.73;61.30;98619.19;7308891;19;129277;-41
2023/03/23 01:10:26;;;;;;;48.95;2.63;;;;;;;21.75;60.76;98614.59;7310392;19;128919;-41
2023/03/23 01:12:52;;;;;;;62.92;3.55;;;;;;;21.75;61.02;98606.75;7308477;19;129703;-42
2023/03/23 01:15:18;;;;;;;34.78;2.17;;;;;;;21.75;60.64;98603.34;7310946;19;129516;-41
2023/03/23 01:17:44;;;;;;;45.95;2.50;;;;;;;21.74;60.58;98605.13;7307379;19;129813;-41
2023/03/23 01:20:10;;;;;;;41.47;2.40;;;;;;;21.75;60.56;98601.53;7310396;19;129003;-41
2023/03/23 01:22:36;;;;;;;43.25;2.38;;;;;;;21.64;60.92;98573.09;7310616;19;129900;-42
2023/03/23 01:25:02;;;;;;;25.43;1.60;;;;;;;21.75;60.57;98582.41;7310024;19;129681;-42
2023/03/23 01:27:27;;;;;;;47.67;2.83;;;;;;;21.76;61.13;98589.28;7307723;19;129034;-40
2023/03/23 01:29:53;;;;;;;40.08;2.28;;;;;;;21.76;61.05;98584.91;7309696;19;129169;-42
2023/03/23 01:32:18;;;;;;;76.43;4.33;;;;;;;21.76;61.02;98576.19;7309541;19;129610;-41
2023/03/23 01:34:44;;;;;;;32.83;1.90;;;;;;;21.76;61.03;98577.03;7306899;19;130046;-40
2023/03/23 01:37:09;;;;;;;53.93;2.83;;;;;;;21.75;60.86;98580.59;7308427;19;129380;-39
2023/03/23 01:39:38;;;;;;;42.17;2.30;;;;;;;21.76;60.70;98579.66;7309589;19;129240;-42
2023/03/23 01:42:03;;;;;;;46.38;2.65;;;;;;;21.76;60.30;98571.81;7310597;19;129440;-41
2023/03/23 01:44:31;;;;;;;61.42;3.42;;;;;;;21.76;61.11;98561.34;7308404;19;129470;-41
2023/03/23 01:46:58;;;;;;;66.50;3.65;;;;;;;21.74;60.94;98572.91;7314974;19;129129;-42
2023/03/23 01:49:31;;;;;;;39.17;2.13;;;;;;;21.79;60.90;98566.25;7316594;19;129110;-42
2023/03/23 01:52:02;;;;;;;38.97;2.25;;;;;;;21.78;60.60;98569.81;7314128;19;129984;-40
2023/03/23 01:54:29;;;;;;;50.13;3.03;;;;;;;21.78;60.42;98567.22;7315210;19;129609;-40
2023/03/23 01:56:55;;;;;;;30.92;1.80;;;;;;;21.79;60.04;98566.25;7315656;19;128974;-42
2023/03/23 01:59:23;;;;;;;57.03;2.85;;;;;;;21.80;60.84;98567.88;7316560;19;129291;-41
2023/03/23 02:01:52;;;;;;;49.65;2.67;;;;;;;21.79;60.26;98565.41;7317324;19;129114;-41
2023/03/23 02:04:20;;;;;;;60.63;3.40;;;;;;;21.79;60.95;98560.19;7315615;19;129694;-42
2023/03/23 02:06:46;;;;;;;35.97;2.03;;;;;;;21.78;60.09;98564.59;7315520;19;129407;-41
2023/03/23 02:09:17;;;;;;;51.05;2.67;;;;;;;21.80;60.76;98569.66;7314735;19;129679;-42
2023/03/23 02:11:43;;;;;;;32.75;1.77;;;;;;;21.79;60.42;98570.66;7313013;19;129440;-41
2023/03/23 02:14:09;;;;;;;48.72;2.78;;;;;;;21.78;60.54;98566.41;7313631;19;129512;-41
2023/03/23 02:16:44;;;;;;;61.50;3.40;;;;;;;21.80;61.17;98567.03;7314528;19;128947;-42
2023/03/23 02:19:20;;;;;;;47.80;2.60;;;;;;;21.78;60.91;98559.34;7315458;19;129717;-41
2023/03/23 02:22:03;;;;;;;60.40;2.97;;;;;;;21.78;60.53;98556.75;7314346;19;129919;-42
2023/03/23 02:24:35;;;;;;;65.68;3.65;;;;;;;21.77;60.14;98552.50;7314907;19;129253;-41
2023/03/23 02:27:16;;;;;;;44.35;2.53;;;;;;;21.67;60.85;98530.91;7315720;19;129084;-41
2023/03/23 02:29:54;;;;;;;29.30;1.70;;;;;;;21.78;60.71;98543.66;7315979;19;129003;-41
2023/03/23 02:32:22;;;;;;;32.33;1.77;;;;;;;21.79;60.89;98550.53;7315638;19;129201;-40
2023/03/23 02:34:55;;;;;;;26.40;1.50;;;;;;;21.78;60.80;98553.34;7314229;19;129752;-40
2023/03/23 02:37:32;;;;;;;54.67;2.95;;;;;;;21.77;60.61;98551.69;7313649;19;129519;-42
2023/03/23 02:40:12;;;;;;;52.80;2.93;;;;;;;21.78;61.03;98553.34;7313952;19;129392;-42
2023/03/23 02:42:42;;;;;;;53.95;2.97;;;;;;;21.76;61.16;98560.50;7315115;19;129427;-39
2023/03/23 02:45:11;;;;;;;64.63;3.60;;;;;;;21.70;61.04;98548.88;7313609;19;129085;-40
2023/03/23 02:47:38;;;;;;;36.92;2.22;;;;;;;21.74;60.55;98550.19;7312594;19;128965;-41
2023/03/23 02:50:06;;;;;;;45.28;2.60;;;;;;;21.74;60.34;98555.44;7314380;19;129126;-42
2023/03/23 02:52:34;;;;;;;50.25;2.65;;;;;;;21.74;60.53;98555.44;7313751;19;129517;-43
2023/03/23 02:55:01;;;;;;;51.20;2.67;;;;;;;21.75;60.81;98549.19;7315677;19;129832;-43
2023/03/23 02:57:28;;;;;;;38.17;2.22;;;;;;;21.73;60.82;98556.41;7311154;19;129726;-41
2023/03/23 02:59:54;;;;;;;43.78;2.38;;;;;;;21.76;60.18;98560.50;7314148;19;129131;-42
2023/03/23 03:02:36;;;;;;;51.30;2.73;;;;;;;21.76;61.17;98556.13;7314617;19;130071;-40
2023/03/23 03:05:16;;;;;;;58.97;3.08;;;;;;;21.75;60.74;98545.78;7314547;19;129356;-42
2023/03/23 03:08:27;;;;;;;60.65;2.95;;;;;;;21.76;60.55;98550.03;7312746;19;129121;-41
2023/03/23 03:11:07;;;;;;;34.50;1.73;;;;;;;21.72;61.14;98544.31;7314101;19;129634;-40
2023/03/23 03:13:35;;;;;;;57.15;2.78;;;;;;;21.72;61.20;98543.47;7314448;19;130372;-41
2023/03/23 03:16:21;;;;;;;47.45;2.53;;;;;;;21.74;61.04;98547.56;7313968;19;129159;-40
2023/03/23 03:19:15;;;;;;;54.42;2.97;;;;;;;21.70;61.17;98535.81;7314574;19;130522;-42
2023/03/23 03:21:44;;;;;;;53.15;2.75;;;;;;;21.72;60.74;98538.25;7312679;19;129434;-41
2023/03/23 03:24:12;;;;;;;41.80;2.42;;;;;;;21.72;60.70;98539.06;7314801;19;129199;-42
2023/03/23 03:26:47;;;;;;;40.85;2.17;;;;;;;21.69;60.75;98528.94;7311082;19;129168;-41
2023/03/23 03:29:18;;;;;;;40.20;2.30;;;;;;;21.73;60.75;98529.44;7314050;19;129695;-41
2023/03/23 03:31:45;;;;;;;47.05;2.53;;;;;;;21.72;60.26;98533.84;7310988;19;129355;-40
2023/03/23 03:34:12;;;;;;;67.95;3.53;;;;;;;21.72;60.65;98527.78;7314487;19;129514;-41
2023/03/23 03:36:40;;;;;;;43.47;2.35;;;;;;;21.71;60.95;98520.94;7313242;19;130346;-41
2023/03/23 03:39:09;;;;;;;42.40;2.45;;;;;;;21.57;60.44;98504.09;7313347;19;128844;-41
2023/03/23 03:41:36;;;;;;;47.85;2.72;;;;;;;21.70;59.54;98533.19;7313423;19;129699;-40
2023/03/23 03:44:06;;;;;;;64.25;3.25;;;;;;;21.70;60.19;98530.56;7313569;19;129737;-41
2023/03/23 03:46:33;;;;;;;35.45;1.95;;;;;;;21.70;60.84;98530.56;7312756;19;129553;-41
2023/03/23 03:49:00;;;;;;;55.92;3.03;;;;;;;21.70;60.07;98527.94;7309573;19;129576;-41
2023/03/23 03:51:28;;;;;;;39.92;2.22;;;;;;;21.69;60.76;98525.50;7311658;19;129380;-40
2023/03/23 03:53:58;;;;;;;63.58;3.33;;;;;;;21.65;60.30;98522.41;7312926;19;129494;-40
2023/03/23 03:56:25;;;;;;;44.08;2.40;;;;;;;21.70;60.40;98521.94;7311723;19;129184;-41
2023/03/23 03:58:52;;;;;;;40.53;2.25;;;;;;;21.68;59.76;98519.44;7311832;19;129061;-42
2023/03/23 04:01:24;;;;;;;24.02;1.38;;;;;;;21.69;60.63;98523.72;7312782;19;129339;-43
2023/03/23 04:03:51;;;;;;;22.92;1.42;;;;;;;21.68;60.49;98527.28;7314183;19;129009;-41
2023/03/23 04:06:18;;;;;;;47.95;2.55;;;;;;;21.69;60.46;98530.75;7311978;19;131132;-40
2023/03/23 04:08:48;;;;;;;45.22;2.35;;;;;;;21.68;61.25;98531.72;7310874;19;129006;-42
2023/03/23 04:11:15;;;;;;;45.17;2.67;;;;;;;21.60;60.15;98511.63;7310520;19;128913;-41
2023/03/23 04:13:41;;;;;;;47.03;2.40;;;;;;;21.68;60.46;98526.50;7312606;19;129583;-43
2023/03/23 04:16:08;;;;;;;68.25;3.50;;;;;;;21.69;59.72;98521.09;7309783;19;129580;-41
2023/03/23 04:18:35;;;;;;;37.05;2.13;;;;;;;21.58;60.36;98505.75;7312626;19;129431;-43
2023/03/23 04:21:03;;;;;;;26.90;1.58;;;;;;;21.67;60.05;98528.28;7312944;19;129076;-42
2023/03/23 04:23:34;;;;;;;38.03;2.10;;;;;;;21.67;60.93;98524.84;7313907;19;129669;-42
2023/03/23 04:26:03;;;;;;;67.85;3.60;;;;;;;21.66;59.87;98518.00;7310538;19;129244;-42
2023/03/23 04:28:34;;;;;;;43.53;2.35;;;;;;;21.66;60.34;98513.59;7311605;19;129018;-41
2023/03/23 04:31:04;;;;;;;42.15;2.38;;;;;;;21.58;60.25;98490.06;7312975;19;129512;-41
2023/03/23 04:33:30;;;;;;;44.25;2.55;;;;;;;21.59;59.93;98510.00;7313407;19;129376;-40
2023/03/23 04:36:00;;;;;;;36.33;2.28;;;;;;;21.46;60.39;98499.22;7309773;19;129736;-41
2023/03/23 04:38:28;;;;;;;51.83;2.60;;;;;;;21.45;60.95;98500.19;7312112;19;129155;-41
2023/03/23 04:40:54;;;;;;;33.85;1.85;;;;;;;21.38;59.57;98504.47;7312817;19;129619;-41
2023/03/23 04:43:22;;;;;;;31.25;1.70;;;;;;;21.38;59.11;98504.47;7312039;19;129228;-40
2023/03/23 04:46:00;;;;;;;64.40;3.58;;;;;;;21.54;58.98;98499.22;7309725;19;129722;-39
2023/03/23 04:48:29;;;;;;;56.42;3.08;;;;;;;21.71;58.27;98490.38;7310257;19;129175;-41
2023/03/23 04:50:59;;;;;;;54.45;2.85;;;;;;;21.88;57.76;98489.34;7310207;19;128927;-41
2023/03/23 04:53:25;;;;;;;40.33;2.13;;;;;;;22.03;57.40;98496.53;7311202;19;130596;-41
2023/03/23 04:55:51;;;;;;;39.33;2.03;;;;;;;22.20;56.64;98493.66;7308583;19;130880;-42
2023/03/23 04:58:20;;;;;;;49.13;2.73;;;;;;;22.33;56.23;98507.00;7310778;19;129369;-40
2023/03/23 05:00:49;;;;;;;78.55;3.92;;;;;;;22.51;55.63;98501.53;7310353;19;129196;-41
2023/03/23 05:03:19;;;;;;;64.88;3.30;;;;;;;22.65;54.66;98491.19;7300364;19;129930;-40
2023/03/23 05:05:52;;;;;;;93.78;4.95;;;;;;;22.85;54.95;98494.16;7306182;19;130133;-40
2023/03/23 05:08:19;;;;;;;84.47;4.70;;;;;;;22.98;54.43;98497.84;7307703;19;131718;-39
2023/03/23 05:10:58;;;;;;;82.47;4.25;;;;;;;23.08;53.53;98481.84;7300609;19;130273;-40
2023/03/23 05:13:24;;;;;;;97.43;5.18;;;;;;;23.27;53.76;98480.59;7303122;19;129940;-42
2023/03/23 05:15:50;;;;;;;103.47;5.60;;;;;;;23.46;53.27;98482.69;7298723;19;131686;-42
2023/03/23 05:18:16;;;;;;;72.45;4.03;;;;;;;23.57;52.18;98488.34;7301991;19;129092;-42
2023/03/23 05:20:43;;;;;;;34.75;1.85;;;;;;;23.61;52.74;98497.50;7312964;19;129283;-41
2023/03/23 05:23:10;;;;;;;54.90;2.78;;;;;;;23.55;52.59;98500.00;7318920;19;129501;-42
2023/03/23 05:25:39;;;;;;;46.63;2.53;;;;;;;23.54;52.57;98498.38;7317394;19;129434;-40
2023/03/23 05:28:07;;;;;;;69.43;3.88;;;;;;;23.45;52.70;98489.78;7314885;19;129089;-41
2023/03/23 05:30:34;;;;;;;49.08;2.63;;;;;;;23.30;52.80;98480.25;7317869;19;129269;-43
2023/03/23 05:33:03;;;;;;;63.28;3.25;;;;;;;23.20;53.26;98493.56;7314611;19;129159;-41
2023/03/23 05:35:30;;;;;;;60.25;3.53;;;;;;;23.11;54.04;98492.00;7314239;19;130375;-42
2023/03/23 05:37:56;;;;;;;89.70;5.05;;;;;;;22.95;53.62;98474.59;7309895;19;129237;-39
2023/03/23 05:40:27;;;;;;;86.82;4.75;;;;;;;22.97;53.70;98484.91;7310649;19;130487;-41
2023/03/23 05:42:55;;;;;;;107.93;5.93;;;;;;;22.94;53.56;98493.13;7304263;19;129210;-41
2023/03/23 05:45:26;;;;;;;60.75;3.08;;;;;;;22.83;54.24;98483.03;7313292;19;130977;-42
2023/03/23 05:47:54;;;;;;;40.30;2.13;;;;;;;22.84;54.73;98501.19;7309132;19;129328;-41
2023/03/23 05:50:20;;;;;;;37.17;2.10;;;;;;;22.72;55.00;98499.97;7315919;19;129133;-43
2023/03/23 05:52:45;;;;;;;66.17;3.63;;;;;;;22.63;54.93;98489.69;7311935;19;131171;-41
2023/03/23 05:55:12;;;;;;;45.83;2.23;;;;;;;22.55;55.12;98497.63;7315996;19;129844;-41
2023/03/23 05:57:40;;;;;;;;;;;;;;;22.41;55.97;98498.31;7313984;19;131622;-41
2023/03/23 06:00:19;;;;;;;45.72;2.60;;;;;;;22.34;55.73;98486.88;7315432;19;129953;-42
2023/03/23 06:02:48;;;;;;;47.47;2.65;;;;;;;22.25;56.01;98493.97;7314860;19;129436;-41
2023/03/23 06:05:15;;;;;;;92.63;4.93;;;;;;;22.16;56.17;98494.19;7314457;19;129705;-42
2023/03/23 06:07:47;;;;;;;73.43;3.83;;;;;;;22.08;56.16;98505.47;7311633;19;129200;-40
2023/03/23 06:10:16;;;;;;;30.45;1.67;;;;;;;22.01;56.61;98508.94;7314036;19;129667;-41
2023/03/23 06:12:43;;;;;;;31.65;1.77;;;;;;;21.91;56.80;98517.00;7312631;19;130056;-41
2023/03/23 06:15:14;;;;;;;92.97;5.05;;;;;;;21.84;57.24;98514.25;7308570;19;131455;-40
2023/03/23 06:17:40;;;;;;;66.90;3.53;;;;;;;21.71;57.66;98507.84;7308598;19;130278;-41
2023/03/23 06:20:10;;;;;;;52.60;3.00;;;;;;;21.65;57.87;98498.84;7314969;19;129425;-41
2023/03/23 06:22:37;;;;;;;57.50;3.17;;;;;;;21.70;57.83;98499.19;7312743;19;129853;-40
2023/03/23 06:25:05;;;;;;;48.33;2.75;;;;;;;21.66;58.42;98495.28;7313064;19;129170;-41
2023/03/23 06:27:33;;;;;;;53.05;3.03;;;;;;;21.66;58.66;98495.28;7314003;19;129103;-42
2023/03/23 06:30:02;;;;;;;48.70;2.55;;;;;;;21.65;58.36;98491.00;7316259;19;129032;-41
2023/03/23 06:32:30;;;;;;;48.65;2.72;;;;;;;21.62;58.35;98493.97;7314637;19;129842;-41
2023/03/23 06:34:56;;;;;;;51.42;2.80;;;;;;;21.60;59.04;98495.13;7313289;19;129981;-41
2023/03/23 06:37:23;;;;;;;30.03;1.63;;;;;;;21.59;59.27;98507.38;7313963;19;130078;-40
2023/03/23 06:39:49;;;;;;;49.47;2.75;;;;;;;21.60;59.49;98501.16;7315366;19;129566;-41
2023/03/23 06:42:15;;;;;;;37.90;2.07;;;;;;;21.62;58.68;98509.66;7315649;19;129141;-41
2023/03/23 06:44:43;;;;;;;31.00;1.73;;;;;;;21.63;58.96;98511.31;7315016;19;129546;-43
2023/03/23 06:47:09;;;;;;;79.72;4.13;;;;;;;21.73;57.71;98509.31;7313513;19;128975;-41
2023/03/23 06:49:36;;;;;;;55.55;2.92;;;;;;;21.90;57.21;98516.16;7314889;19;128760;-42
2023/03/23 06:52:03;;;;;;;;;;;;;;;22.09;56.84;98516.78;7314795;19;129361;-41
2023/03/23 06:54:29;;;;;;;69.00;3.83;;;;;;;22.24;56.39;98522.94;7315212;19;129357;-41
2023/03/23 06:56:55;;;;;;;55.88;2.92;;;;;;;22.36;56.22;98521.59;7314635;19;129135;-42
2023/03/23 06:59:23;;;;;;;46.70;2.47;;;;;;;22.35;56.23;98525.16;7316264;19;129923;-42
2023/03/23 07:01:49;;;;;;;36.10;1.90;;;;;;;22.36;56.46;98521.59;7316619;19;129512;-41
2023/03/23 07:04:16;;;;;;;40.77;2.43;;;;;;;22.31;55.91;98523.91;7315235;19;129486;-42
2023/03/23 07:06:42;;;;;;;34.33;1.90;;;;;;;22.28;56.02;98519.00;7313845;19;129195;-41
2023/03/23 07:09:08;;;;;;;54.05;2.80;;;;;;;22.19;56.55;98525.25;7315335;19;129060;-42
2023/03/23 07:11:35;;;;;;;44.97;2.27;;;;;;;22.12;56.77;98532.13;7313472;19;129046;-41
2023/03/23 07:14:02;;;;;;;28.95;1.77;;;;;;;22.05;57.15;98524.13;7313488;19;129243;-41
2023/03/23 07:16:31;;;;;;;68.68;3.80;;;;;;;22.00;57.01;98531.69;7313132;19;129413;-41
2023/03/23 07:18:58;;;;;;;56.63;3.08;;;;;;;21.91;57.15;98536.09;7312725;19;129560;-40
2023/03/23 07:21:24;;;;;;;36.53;1.95;;;;;;;21.83;57.41;98533.53;7315068;19;129480;-41
2023/03/23 07:23:51;;;;;;;32.70;1.75;;;;;;;21.80;57.95;98536.47;7313338;19;130983;-41
2023/03/23 07:26:20;;;;;;;39.05;1.98;;;;;;;21.75;57.82;98537.94;7313475;19;129497;-41
2023/03/23 07:28:49;;;;;;;64.40;3.60;;;;;;;21.68;58.25;98540.38;7312383;19;129183;-40
2023/03/23 07:31:16;;;;;;;32.28;1.75;;;;;;;21.64;57.81;98544.31;7313478;19;129506;-40
2023/03/23 07:33:42;;;;;;;25.10;1.40;;;;;;;21.64;58.61;98546.13;7312344;19;129372;-40
2023/03/23 07:36:09;;;;;;;37.37;2.07;;;;;;;21.60;59.05;98555.28;7311821;19;129683;-41
2023/03/23 07:38:35;;;;;;;57.92;2.88;;;;;;;21.54;59.11;98546.28;7312345;19;128847;-41
2023/03/23 07:41:01;;;;;;;;;;;;;;;21.55;59.33;98555.75;7314563;19;129048;-41
2023/03/23 07:43:28;;;;;;;29.60;1.77;;;;;;;21.45;59.86;98542.03;7310499;19;129753;-39
2023/03/23 07:45:54;;;;;;;37.15;2.03;;;;;;;21.59;59.19;98556.25;7312988;19;129623;-41
2023/03/23 07:48:23;;;;;;;49.25;2.47;;;;;;;21.58;60.39;98558.06;7311265;19;129783;-41
2023/03/23 07:50:49;;;;;;;18.90;1.10;;;;;;;21.60;59.18;98561.31;7314525;19;129447;-42
2023/03/23 07:53:15;;;;;;;28.90;1.65;;;;;;;21.59;59.94;98566.72;7311647;19;130825;-41
2023/03/23 07:55:41;;;;;;;38.75;2.17;;;;;;;21.59;60.41;98570.16;7314064;19;129086;-41
2023/03/23 07:58:08;;;;;;;49.80;2.73;;;;;;;21.58;59.77;98573.75;7310241;19;130747;-41
2023/03/23 08:00:34;;;;;;;62.30;3.33;;;;;;;21.59;60.07;98579.78;7312722;19;129191;-41
2023/03/23 08:03:02;;;;;;;62.38;3.28;;;;;;;21.59;61.11;98578.00;7312756;19;130260;-42
2023/03/23 08:05:28;;;;;;;35.97;1.98;;;;;;;21.63;60.07;98579.31;7312680;19;130395;-42
2023/03/23 08:07:55;;;;;;;86.00;4.57;;;;;;;21.57;59.10;98574.72;7308429;19;129975;-41
2023/03/23 08:10:26;;;;;;;31.85;1.95;;;;;;;21.70;58.56;98588.13;7311277;19;129064;-42
2023/03/23 08:12:56;;;;;;;38.50;1.98;;;;;;;21.74;58.42;98567.69;7309820;19;129243;-40
2023/03/23 08:15:22;;;;;;;39.92;2.10;;;;;;;22.05;57.85;98583.53;7313030;19;129987;-42
2023/03/23 08:17:51;;;;;;;48.28;2.63;;;;;;;22.14;56.90;98591.22;7308129;19;128931;-40
2023/03/23 08:20:18;;;;;;;26.45;1.52;;;;;;;22.24;57.02;98583.16;7312787;19;129067;-41
2023/03/23 08:22:48;;;;;;;36.70;1.92;;;;;;;22.21;57.21;98586.13;7310687;19;129815;-41
2023/03/23 08:25:17;;;;;;;37.20;1.92;;;;;;;22.16;57.20;98594.47;7312028;19;128930;-41
2023/03/23 08:27:44;;;;;;;73.68;4.10;;;;;;;22.18;57.23;98602.16;7308079;19;129054;-40
2023/03/23 08:30:12;;;;;;;68.13;3.53;;;;;;;22.09;57.06;98597.91;7311226;19;130300;-41
2023/03/23 08:32:39;;;;;;;60.63;3.20;;;;;;;22.08;57.55;98604.16;7309164;19;129176;-42
2023/03/23 08:35:10;;;;;;;35.22;2.05;;;;;;;21.93;57.79;98599.56;7310781;19;129098;-41
2023/03/23 08:37:37;;;;;;;52.08;2.92;;;;;;;21.95;57.54;98607.25;7307795;19;129090;-40
2023/03/23 08:40:11;;;;;;;64.90;3.20;;;;;;;21.87;57.76;98615.13;7311184;19;129447;-40
2023/03/23 08:42:38;;;;;;;19.10;1.23;;;;;;;21.81;57.97;98611.38;7311707;19;131244;-41
2023/03/23 08:45:07;;;;;;;40.30;2.10;;;;;;;21.74;58.25;98617.38;7311417;19;128830;-41
2023/03/23 08:47:36;;;;;;;37.90;2.05;;;;;;;21.57;58.16;98593.03;7309103;19;129679;-41
2023/03/23 08:50:06;;;;;;;55.35;3.00;;;;;;;21.68;58.50;98620.66;7311089;19;130017;-40
2023/03/23 08:52:32;;;;;;;52.42;2.65;;;;;;;21.62;58.56;98616.91;7308582;19;130571;-40
2023/03/23 08:55:04;;;;;;;41.75;2.42;;;;;;;21.58;58.70;98625.25;7308352;19;130653;-40
2023/03/23 08:57:30;;;;;;;40.65;2.25;;;;;;;21.57;59.08;98624.41;7308601;19;129186;-41
2023/03/23 08:59:59;;;;;;;45.33;2.60;;;;;;;21.54;59.39;98626.53;7309875;19;129146;-40
2023/03/23 09:02:27;;;;;;;61.22;3.25;;;;;;;21.54;59.40;98629.97;7309569;19;129158;-41
2023/03/23 09:04:54;;;;;;;46.92;2.50;;;;;;;21.55;59.58;98628.97;7311063;19;129234;-39
2023/03/23 09:07:23;;;;;;;38.22;1.88;;;;;;;21.56;59.83;98616.75;7308412;19;128974;-41
2023/03/23 09:09:49;;;;;;;47.75;2.83;;;;;;;21.47;60.08;98605.44;7308200;19;129065;-41
2023/03/23 09:12:16;;;;;;;47.05;2.47;;;;;;;21.47;60.07;98608.06;7308956;19;129227;-41
2023/03/23 09:14:42;;;;;;;;;;;;;;;21.59;60.34;98622.47;7311391;19;129723;-40
2023/03/23 09:17:08;;;;;;;45.42;2.47;;;;;;;21.57;60.28;98629.66;7308435;19;129184;-41
2023/03/23 09:19:35;;;;;;;39.08;2.00;;;;;;;21.57;60.12;98629.66;7309496;19;129451;-41
2023/03/23 09:22:02;;;;;;;53.45;2.83;;;;;;;21.59;60.79;98632.09;7309264;19;129230;-40
2023/03/23 09:24:28;;;;;;;46.53;2.55;;;;;;;21.58;59.67;98625.25;7310365;19;128839;-40
2023/03/23 09:26:54;;;;;;;49.77;2.77;;;;;;;21.61;58.73;98636.19;7308242;19;128817;-41
2023/03/23 09:29:20;;;;;;;23.47;1.30;;;;;;;21.69;58.54;98636.19;7309226;19;129400;-41
2023/03/23 09:31:47;;;;;;;80.30;4.38;;;;;;;21.85;58.33;98627.53;7306009;19;129759;-41
2023/03/23 09:34:15;;;;;;;77.47;3.97;;;;;;;22.06;57.27;98642.75;7307773;19;129109;-41
2023/03/23 09:36:42;;;;;;;43.83;2.42;;;;;;;22.14;57.49;98633.09;7309634;19;128933;-39
2023/03/23 09:39:11;;;;;;;46.03;2.50;;;;;;;22.20;57.00;98636.81;7309056;19;129416;-41
2023/03/23 09:41:58;;;;;;;46.70;2.53;;;;;;;22.22;57.14;98640.94;7310792;19;129202;-42
2023/03/23 09:44:48;;;;;;;104.73;5.50;;;;;;;22.21;57.26;98643.72;7309353;19;129111;-41
2023/03/23 09:47:25;;;;;;;41.30;2.17;;;;;;;22.16;57.09;98643.41;7307009;19;129592;-40
2023/03/23 09:49:57;;;;;;;57.78;2.90;;;;;;;22.09;57.22;98645.03;7308622;19;131506;-41
2023/03/23 09:52:38;;;;;;;43.28;2.25;;;;;;;22.06;56.91;98650.59;7308146;19;129646;-39
2023/03/23 09:55:05;;;;;;;44.13;2.35;;;;;;;21.97;57.37;98639.31;7308821;19;130314;-40
2023/03/23 09:57:54;;;;;;;55.03;3.10;;;;;;;21.88;58.02;98641.13;7307531;19;130557;-41
2023/03/23 10:00:37;;;;;;;75.57;4.03;;;;;;;21.82;58.03;98633.09;7308691;19;130005;-41
2023/03/23 10:03:14;;;;;;;30.00;1.65;;;;;;;21.76;58.23;98624.13;7308768;19;130004;-41
2023/03/23 10:05:47;;;;;;;43.03;2.22;;;;;;;21.58;58.40;98620.84;7309775;19;129108;-41
2023/03/23 10:08:31;;;;;;;40.45;2.25;;;;;;;21.54;58.46;98616.91;7316275;19;129397;-41
2023/03/23 10:11:11;;;;;;;53.42;2.90;;;;;;;21.64;59.01;98635.88;7317347;19;129835;-41
2023/03/23 10:14:25;;;;;;;51.78;2.63;;;;;;;21.59;59.56;98625.06;7317055;19;129294;-41
2023/03/23 10:17:19;;;;;;;38.42;2.13;;;;;;;21.59;59.86;98622.47;7314593;19;128794;-40
2023/03/23 10:19:58;;;;;;;56.90;2.88;;;;;;;21.45;59.96;98614.44;7315828;19;128891;-41
2023/03/23 10:22:32;;;;;;;30.40;1.60;;;;;;;21.57;59.97;98636.66;7316076;19;129117;-40
2023/03/23 10:25:14;;;;;;;56.00;2.97;;;;;;;21.45;60.33;98620.47;7315899;19;130140;-42
2023/03/23 10:27:51;;;;;;;75.18;3.97;;;;;;;21.58;60.14;98639.16;7312469;19;129068;-42
2023/03/23 10:30:41;;;;;;;60.67;2.92;;;;;;;21.58;60.67;98636.53;7316491;19;129339;-41
2023/03/23 10:33:29;;;;;;;62.85;3.15;;;;;;;21.56;61.16;98632.44;7311328;19;131798;-42
2023/03/23 10:36:03;;;;;;;64.20;3.23;;;;;;;21.58;61.34;98633.91;7314187;19;129627;-41
2023/03/23 10:38:35;;;;;;;47.15;2.53;;;;;;;21.57;61.51;98627.03;7314045;19;130097;-40
2023/03/23 10:41:19;;;;;;;68.57;3.92;;;;;;;21.47;60.36;98608.06;7314545;19;129195;-41
2023/03/23 10:43:49;;;;;;;34.15;1.77;;;;;;;21.57;59.66;98627.03;7315388;19;129130;-41
2023/03/23 10:46:29;;;;;;;39.88;2.20;;;;;;;21.64;58.67;98625.41;7311162;19;129876;-42
2023/03/23 10:48:58;;;;;;;41.40;2.30;;;;;;;21.80;58.36;98622.00;7314296;19;129994;-40
2023/03/23 10:51:33;;;;;;;43.50;2.17;;;;;;;21.90;58.01;98604.31;7315478;19;129179;-41
2023/03/23 10:54:02;;;;;;;52.63;2.78;;;;;;;22.14;57.57;98612.16;7315248;19;129503;-40
2023/03/23 10:56:36;;;;;;;46.72;2.55;;;;;;;22.20;56.85;98610.63;7312907;19;130473;-40
2023/03/23 10:59:13;;;;;;;46.33;2.58;;;;;;;22.20;57.24;98608.03;7314500;19;129852;-39
2023/03/23 11:01:44;;;;;;;66.00;3.50;;;;;;;22.17;56.79;98611.81;7313928;19;128980;-41
2023/03/23 11:04:16;;;;;;;45.00;2.42;;;;;;;22.17;57.40;98616.22;7314128;19;129514;-40
2023/03/23 11:06:49;;;;;;;28.75;1.55;;;;;;;22.10;57.29;98620.50;7312984;19;129365;-41
2023/03/23 11:09:18;;;;;;;34.47;1.77;;;;;;;21.94;57.19;98601.22;7314261;19;129005;-41
2023/03/23 11:11:52;;;;;;;37.03;2.10;;;;;;;22.00;57.82;98619.88;7314455;19;128950;-39
2023/03/23 11:14:29;;;;;;;66.30;3.55;;;;;;;21.91;57.90;98627.69;7315906;19;129482;-41
2023/03/23 11:16:57;;;;;;;45.70;2.53;;;;;;;21.85;57.69;98628.38;7313346;19;129235;-42
2023/03/23 11:19:30;;;;;;;38.55;2.00;;;;;;;21.79;58.48;98626.41;7311663;19;130041;-40
2023/03/23 11:22:14;;;;;;;105.88;5.68;;;;;;;21.75;58.77;98632.13;7307933;19;128973;-41
2023/03/23 11:24:46;;;;;;;79.85;4.22;;;;;;;21.69;58.22;98636.19;7309694;19;130908;-40
2023/03/23 11:27:15;;;;;;;109.85;6.18;;;;;;;21.55;58.57;98626.38;7306424;19;131618;-39
2023/03/23 11:29:54;;;;;;;38.25;2.05;;;;;;;21.64;58.87;98635.88;7312772;19;129240;-41
2023/03/23 11:32:27;;;;;;;34.60;1.90;;;;;;;21.58;59.45;98647.00;7310253;19;129196;-41